sensor_id;sensor_type;location;lat;lon;timestamp;pressure;altitude;pressure_sealevel;temperature;humidity
56038;BME280;41907;47.848;9.000;2022-09-23T00:00:39;95980.38;;;6.01;100.00
56038;BME280;41907;47.848;9.000;2022-09-23T00:03:04;95982.75;;;6.02;100.00
56038;BME280;41907;47.848;9.000;2022-09-23T00:05:30;95989.88;;;6.07;100.00
56038;BME280;41907;47.848;9.000;2022-09-23T00:07:56;95986.72;;;6.00;100.00
56038;BME280;41907;47.848;9.000;2022-09-23T00:10:23;95983.03;;;6.01;100.00
56038;BME280;41907;47.848;9.000;2022-09-23T00:12:48;95983.03;;;5.95;100.00
56038;BME280;41907;47.848;9.000;2022-09-23T00:15:14;95981.19;;;5.96;100.00
56038;BME280;41907;47.848;9.000;2022-09-23T00:17:40;95979.59;;;5.95;100.00
56038;BME280;41907;47.848;9.000;2022-09-23T00:20:06;95974.59;;;5.93;100.00
56038;BME280;41907;47.848;9.000;2022-09-23T00:22:34;95983.56;;;5.97;100.00
56038;BME280;41907;47.848;9.000;2022-09-23T00:25:04;95979.31;;;6.02;100.00
56038;BME280;41907;47.848;9.000;2022-09-23T00:27:30;95979.06;;;5.98;100.00
56038;BME280;41907;47.848;9.000;2022-09-23T00:29:58;95985.41;;;6.02;100.00
56038;BME280;41907;47.848;9.000;2022-09-23T00:32:24;95980.09;;;6.02;100.00
56038;BME280;41907;47.848;9.000;2022-09-23T00:34:49;95982.50;;;6.04;100.00
56038;BME280;41907;47.848;9.000;2022-09-23T00:37:15;95975.06;;;6.01;100.00
56038;BME280;41907;47.848;9.000;2022-09-23T00:39:41;95980.09;;;6.02;100.00
56038;BME280;41907;47.848;9.000;2022-09-23T00:42:12;95976.41;;;5.98;100.00
56038;BME280;41907;47.848;9.000;2022-09-23T00:44:52;95974.59;;;5.88;100.00
56038;BME280;41907;47.848;9.000;2022-09-23T00:47:22;95981.19;;;5.86;100.00
56038;BME280;41907;47.848;9.000;2022-09-23T00:49:55;95980.69;;;5.79;100.00
56038;BME280;41907;47.848;9.000;2022-09-23T00:52:24;95973.56;;;5.74;100.00
56038;BME280;41907;47.848;9.000;2022-09-23T00:54:51;95971.47;;;5.71;100.00
56038;BME280;41907;47.848;9.000;2022-09-23T00:57:19;95967.75;;;5.67;100.00
56038;BME280;41907;47.848;9.000;2022-09-23T00:59:46;95969.06;;;5.75;100.00
56038;BME280;41907;47.848;9.000;2022-09-23T01:02:13;95965.34;;;5.81;100.00
56038;BME280;41907;47.848;9.000;2022-09-23T01:04:39;95969.31;;;5.88;100.00
56038;BME280;41907;47.848;9.000;2022-09-23T01:07:05;95972.22;;;5.92;100.00
56038;BME280;41907;47.848;9.000;2022-09-23T01:09:30;95970.09;;;5.89;100.00
56038;BME280;41907;47.848;9.000;2022-09-23T01:12:28;95968.19;;;5.94;100.00
56038;BME280;41907;47.848;9.000;2022-09-23T01:15:01;95972.16;;;6.02;100.00
56038;BME280;41907;47.848;9.000;2022-09-23T01:28:47;95952.75;;;5.52;100.00
56038;BME280;41907;47.848;9.000;2022-09-23T01:36:32;95943.50;;;5.40;100.00
56038;BME280;41907;47.848;9.000;2022-09-23T01:39:06;95949.84;;;5.44;100.00
56038;BME280;41907;47.848;9.000;2022-09-23T01:41:43;95952.50;;;5.39;100.00
56038;BME280;41907;47.848;9.000;2022-09-23T01:44:31;95950.41;;;5.36;100.00
56038;BME280;41907;47.848;9.000;2022-09-23T01:47:18;95951.44;;;5.40;100.00
56038;BME280;41907;47.848;9.000;2022-09-23T01:52:40;95952.53;;;5.34;100.00
56038;BME280;41907;47.848;9.000;2022-09-23T01:55:16;95947.25;;;5.29;100.00
56038;BME280;41907;47.848;9.000;2022-09-23T01:57:45;95943.31;;;5.26;100.00
56038;BME280;41907;47.848;9.000;2022-09-23T02:00:14;95941.44;;;5.21;100.00
56038;BME280;41907;47.848;9.000;2022-09-23T02:07:57;95945.19;;;5.05;100.00
56038;BME280;41907;47.848;9.000;2022-09-23T02:10:33;95942.53;;;5.00;100.00
56038;BME280;41907;47.848;9.000;2022-09-23T02:13:08;95940.44;;;4.97;100.00
56038;BME280;41907;47.848;9.000;2022-09-23T02:15:44;95944.69;;;4.98;100.00
56038;BME280;41907;47.848;9.000;2022-09-23T02:18:37;95934.91;;;4.99;100.00
56038;BME280;41907;47.848;9.000;2022-09-23T02:21:07;95943.84;;;5.03;100.00
56038;BME280;41907;47.848;9.000;2022-09-23T02:23:48;95939.91;;;5.05;100.00
56038;BME280;41907;47.848;9.000;2022-09-23T02:26:20;95945.16;;;5.10;100.00
56038;BME280;41907;47.848;9.000;2022-09-23T02:28:55;95937.75;;;5.12;100.00
56038;BME280;41907;47.848;9.000;2022-09-23T02:34:16;95929.56;;;5.14;100.00
56038;BME280;41907;47.848;9.000;2022-09-23T02:39:33;95923.22;;;5.15;100.00
56038;BME280;41907;47.848;9.000;2022-09-23T02:42:05;95937.50;;;5.14;100.00
56038;BME280;41907;47.848;9.000;2022-09-23T02:44:34;95932.97;;;5.19;100.00
56038;BME280;41907;47.848;9.000;2022-09-23T02:47:00;95923.50;;;5.18;100.00
56038;BME280;41907;47.848;9.000;2022-09-23T02:49:28;95921.91;;;5.17;100.00
56038;BME280;41907;47.848;9.000;2022-09-23T02:51:55;95915.28;;;5.10;100.00
56038;BME280;41907;47.848;9.000;2022-09-23T02:54:24;95924.31;;;5.04;100.00
56038;BME280;41907;47.848;9.000;2022-09-23T02:56:51;95918.47;;;5.02;100.00
56038;BME280;41907;47.848;9.000;2022-09-23T02:59:20;95913.19;;;5.02;100.00
56038;BME280;41907;47.848;9.000;2022-09-23T03:01:52;95922.19;;;5.01;100.00
56038;BME280;41907;47.848;9.000;2022-09-23T03:04:34;95922.72;;;4.98;100.00
56038;BME280;41907;47.848;9.000;2022-09-23T03:07:16;95914.00;;;4.97;100.00
56038;BME280;41907;47.848;9.000;2022-09-23T03:09:54;95917.97;;;4.95;100.00
56038;BME280;41907;47.848;9.000;2022-09-23T03:12:39;95919.56;;;4.96;100.00
56038;BME280;41907;47.848;9.000;2022-09-23T03:15:32;95926.69;;;4.95;100.00
56038;BME280;41907;47.848;9.000;2022-09-23T03:18:15;95925.63;;;4.96;100.00
56038;BME280;41907;47.848;9.000;2022-09-23T03:20:48;95924.06;;;4.95;100.00
56038;BME280;41907;47.848;9.000;2022-09-23T03:23:19;95923.53;;;4.93;100.00
56038;BME280;41907;47.848;9.000;2022-09-23T03:25:48;95929.06;;;4.92;100.00
56038;BME280;41907;47.848;9.000;2022-09-23T03:28:16;95925.38;;;4.93;100.00
56038;BME280;41907;47.848;9.000;2022-09-23T03:30:44;95924.84;;;4.96;100.00
56038;BME280;41907;47.848;9.000;2022-09-23T03:33:12;95923.00;;;4.91;100.00
56038;BME280;41907;47.848;9.000;2022-09-23T03:35:54;95926.97;;;4.83;100.00
56038;BME280;41907;47.848;9.000;2022-09-23T03:38:43;95926.44;;;4.81;100.00
56038;BME280;41907;47.848;9.000;2022-09-23T03:41:11;95932.50;;;4.82;100.00
56038;BME280;41907;47.848;9.000;2022-09-23T03:43:41;95924.59;;;4.82;100.00
56038;BME280;41907;47.848;9.000;2022-09-23T03:46:07;95925.66;;;4.76;100.00
56038;BME280;41907;47.848;9.000;2022-09-23T03:48:32;95926.97;;;4.78;100.00
56038;BME280;41907;47.848;9.000;2022-09-23T03:51:02;95923.81;;;4.66;100.00
56038;BME280;41907;47.848;9.000;2022-09-23T03:53:32;95925.91;;;4.64;100.00
56038;BME280;41907;47.848;9.000;2022-09-23T03:55:58;95922.47;;;4.64;100.00
56038;BME280;41907;47.848;9.000;2022-09-23T03:58:23;95918.53;;;4.61;100.00
56038;BME280;41907;47.848;9.000;2022-09-23T04:00:48;95924.88;;;4.60;100.00
56038;BME280;41907;47.848;9.000;2022-09-23T04:03:13;95919.84;;;4.59;100.00
56038;BME280;41907;47.848;9.000;2022-09-23T04:05:39;95920.91;;;4.63;100.00
56038;BME280;41907;47.848;9.000;2022-09-23T04:08:05;95920.38;;;4.66;100.00
56038;BME280;41907;47.848;9.000;2022-09-23T04:10:30;95919.59;;;4.70;100.00
56038;BME280;41907;47.848;9.000;2022-09-23T04:12:55;95917.50;;;4.62;100.00
56038;BME280;41907;47.848;9.000;2022-09-23T04:15:21;95918.28;;;4.58;100.00
56038;BME280;41907;47.848;9.000;2022-09-23T04:17:46;95914.03;;;4.57;100.00
56038;BME280;41907;47.848;9.000;2022-09-23T04:20:11;95906.63;;;4.54;100.00
56038;BME280;41907;47.848;9.000;2022-09-23T04:22:37;95914.31;;;4.50;100.00
56038;BME280;41907;47.848;9.000;2022-09-23T04:25:03;95905.59;;;4.44;100.00
56038;BME280;41907;47.848;9.000;2022-09-23T04:27:28;95898.75;;;4.33;100.00
56038;BME280;41907;47.848;9.000;2022-09-23T04:29:53;95906.38;;;4.35;100.00
56038;BME280;41907;47.848;9.000;2022-09-23T04:32:18;95908.50;;;4.33;100.00
56038;BME280;41907;47.848;9.000;2022-09-23T04:34:44;95908.50;;;4.33;100.00
56038;BME280;41907;47.848;9.000;2022-09-23T04:37:09;95905.56;;;4.34;100.00
56038;BME280;41907;47.848;9.000;2022-09-23T04:39:34;95904.25;;;4.37;100.00
56038;BME280;41907;47.848;9.000;2022-09-23T04:42:00;95904.00;;;4.38;100.00
56038;BME280;41907;47.848;9.000;2022-09-23T04:44:25;95905.34;;;4.41;100.00
56038;BME280;41907;47.848;9.000;2022-09-23T04:46:52;95896.88;;;4.39;100.00
56038;BME280;41907;47.848;9.000;2022-09-23T04:49:17;95901.63;;;4.37;100.00
56038;BME280;41907;47.848;9.000;2022-09-23T04:51:43;95902.69;;;4.41;100.00
56038;BME280;41907;47.848;9.000;2022-09-23T04:54:11;95899.00;;;4.47;100.00
56038;BME280;41907;47.848;9.000;2022-09-23T04:56:36;95900.56;;;4.53;100.00
56038;BME280;41907;47.848;9.000;2022-09-23T04:59:02;95911.94;;;4.59;100.00
56038;BME280;41907;47.848;9.000;2022-09-23T05:01:30;95910.06;;;4.74;100.00
56038;BME280;41907;47.848;9.000;2022-09-23T05:04:00;95917.72;;;4.86;100.00
56038;BME280;41907;47.848;9.000;2022-09-23T05:06:27;95919.84;;;4.84;100.00
56038;BME280;41907;47.848;9.000;2022-09-23T05:08:54;95920.09;;;4.82;100.00
56038;BME280;41907;47.848;9.000;2022-09-23T05:11:21;95927.25;;;4.77;100.00
56038;BME280;41907;47.848;9.000;2022-09-23T05:13:47;95920.91;;;4.73;100.00
56038;BME280;41907;47.848;9.000;2022-09-23T05:16:13;95915.91;;;4.71;100.00
56038;BME280;41907;47.848;9.000;2022-09-23T05:18:40;95927.22;;;4.82;100.00
56038;BME280;41907;47.848;9.000;2022-09-23T05:21:10;95925.94;;;4.79;100.00
56038;BME280;41907;47.848;9.000;2022-09-23T05:23:37;95932.28;;;4.78;100.00
56038;BME280;41907;47.848;9.000;2022-09-23T05:26:05;95933.06;;;4.64;100.00
56038;BME280;41907;47.848;9.000;2022-09-23T05:28:32;95930.41;;;4.64;100.00
56038;BME280;41907;47.848;9.000;2022-09-23T05:33:30;95935.97;;;4.88;100.00
56038;BME280;41907;47.848;9.000;2022-09-23T05:35:56;95926.44;;;4.81;100.00
56038;BME280;41907;47.848;9.000;2022-09-23T05:38:21;95926.72;;;4.85;100.00
56038;BME280;41907;47.848;9.000;2022-09-23T05:40:56;95938.06;;;4.96;100.00
56038;BME280;41907;47.848;9.000;2022-09-23T05:43:22;95933.53;;;5.01;100.00
56038;BME280;41907;47.848;9.000;2022-09-23T05:45:49;95930.09;;;5.11;100.00
56038;BME280;41907;47.848;9.000;2022-09-23T05:48:14;95925.34;;;5.13;100.00
56038;BME280;41907;47.848;9.000;2022-09-23T05:50:48;95936.41;;;5.25;100.00
56038;BME280;41907;47.848;9.000;2022-09-23T05:53:13;95940.34;;;5.43;100.00
56038;BME280;41907;47.848;9.000;2022-09-23T05:55:39;95941.34;;;5.57;100.00
56038;BME280;41907;47.848;9.000;2022-09-23T05:58:04;95943.94;;;5.72;100.00
56038;BME280;41907;47.848;9.000;2022-09-23T06:00:29;95941.22;;;5.87;100.00
56038;BME280;41907;47.848;9.000;2022-09-23T06:02:55;95945.97;;;6.01;100.00
56038;BME280;41907;47.848;9.000;2022-09-23T06:05:20;95939.28;;;6.13;100.00
56038;BME280;41907;47.848;9.000;2022-09-23T06:07:45;95943.63;;;6.33;100.00
56038;BME280;41907;47.848;9.000;2022-09-23T06:10:11;95943.56;;;6.43;100.00
56038;BME280;41907;47.848;9.000;2022-09-23T06:12:36;95934.47;;;6.59;100.00
56038;BME280;41907;47.848;9.000;2022-09-23T06:15:01;95941.94;;;6.81;99.48
56038;BME280;41907;47.848;9.000;2022-09-23T06:17:27;95948.41;;;7.28;97.08
56038;BME280;41907;47.848;9.000;2022-09-23T06:19:52;95947.97;;;8.35;92.72
56038;BME280;41907;47.848;9.000;2022-09-23T06:22:17;95941.91;;;10.00;82.69
56038;BME280;41907;47.848;9.000;2022-09-23T06:24:43;95932.59;;;11.14;76.53
56038;BME280;41907;47.848;9.000;2022-09-23T06:27:08;95934.25;;;11.94;71.60
56038;BME280;41907;47.848;9.000;2022-09-23T06:29:34;95933.06;;;12.26;69.81
56038;BME280;41907;47.848;9.000;2022-09-23T06:32:00;95930.84;;;13.14;65.85
56038;BME280;41907;47.848;9.000;2022-09-23T06:34:26;95935.59;;;13.93;62.82
56038;BME280;41907;47.848;9.000;2022-09-23T06:36:51;95940.72;;;14.99;58.59
56038;BME280;41907;47.848;9.000;2022-09-23T06:39:18;95938.94;;;15.48;57.25
56038;BME280;41907;47.848;9.000;2022-09-23T06:41:43;95934.66;;;16.28;53.84
56038;BME280;41907;47.848;9.000;2022-09-23T06:44:09;95935.84;;;17.23;51.09
56038;BME280;41907;47.848;9.000;2022-09-23T06:46:34;95933.31;;;17.90;47.96
56038;BME280;41907;47.848;9.000;2022-09-23T06:49:00;95935.56;;;17.88;47.22
56038;BME280;41907;47.848;9.000;2022-09-23T06:51:26;95940.09;;;17.99;46.88
56038;BME280;41907;47.848;9.000;2022-09-23T06:53:52;95941.94;;;18.46;46.08
56038;BME280;41907;47.848;9.000;2022-09-23T06:56:17;95939.59;;;18.44;45.18
56038;BME280;41907;47.848;9.000;2022-09-23T06:58:45;95948.00;;;17.17;47.93
56038;BME280;41907;47.848;9.000;2022-09-23T07:01:13;95954.03;;;17.70;47.25
56038;BME280;41907;47.848;9.000;2022-09-23T07:03:40;95946.47;;;18.57;45.59
56038;BME280;41907;47.848;9.000;2022-09-23T07:06:06;95955.19;;;19.66;42.84
56038;BME280;41907;47.848;9.000;2022-09-23T07:08:32;95946.97;;;19.59;43.10
56038;BME280;41907;47.848;9.000;2022-09-23T07:11:00;95963.41;;;20.42;41.65
56038;BME280;41907;47.848;9.000;2022-09-23T07:13:27;95956.66;;;19.41;43.12
56038;BME280;41907;47.848;9.000;2022-09-23T07:15:55;95954.00;;;19.87;42.88
56038;BME280;41907;47.848;9.000;2022-09-23T07:18:23;95953.69;;;20.37;41.98
56038;BME280;41907;47.848;9.000;2022-09-23T07:20:50;95962.88;;;20.33;42.29
56038;BME280;41907;47.848;9.000;2022-09-23T07:23:15;95962.84;;;19.42;44.20
56038;BME280;41907;47.848;9.000;2022-09-23T07:25:42;95955.75;;;18.95;44.77
56038;BME280;41907;47.848;9.000;2022-09-23T07:28:07;95949.31;;;18.30;46.61
56038;BME280;41907;47.848;9.000;2022-09-23T07:30:37;95947.44;;;19.88;42.77
56038;BME280;41907;47.848;9.000;2022-09-23T07:33:03;95956.50;;;19.53;44.38
56038;BME280;41907;47.848;9.000;2022-09-23T07:35:28;95954.19;;;18.94;44.48
56038;BME280;41907;47.848;9.000;2022-09-23T07:37:54;95949.06;;;19.69;44.09
56038;BME280;41907;47.848;9.000;2022-09-23T07:40:19;95958.34;;;20.40;42.21
56038;BME280;41907;47.848;9.000;2022-09-23T07:42:45;95962.69;;;20.22;41.06
56038;BME280;41907;47.848;9.000;2022-09-23T07:45:11;95960.16;;;20.10;41.86
56038;BME280;41907;47.848;9.000;2022-09-23T07:47:37;95961.91;;;21.04;40.56
56038;BME280;41907;47.848;9.000;2022-09-23T07:50:05;95957.66;;;21.70;38.70
56038;BME280;41907;47.848;9.000;2022-09-23T07:52:30;95959.34;;;22.30;38.75
56038;BME280;41907;47.848;9.000;2022-09-23T07:54:55;95961.69;;;22.89;36.88
56038;BME280;41907;47.848;9.000;2022-09-23T07:57:21;95958.06;;;22.13;37.07
56038;BME280;41907;47.848;9.000;2022-09-23T07:59:46;95954.63;;;22.23;38.18
56038;BME280;41907;47.848;9.000;2022-09-23T08:02:11;95963.13;;;22.18;37.42
56038;BME280;41907;47.848;9.000;2022-09-23T08:04:40;95964.63;;;21.31;39.17
56038;BME280;41907;47.848;9.000;2022-09-23T08:07:05;95955.53;;;20.60;40.58
56038;BME280;41907;47.848;9.000;2022-09-23T08:09:34;95960.03;;;21.38;41.30
56038;BME280;41907;47.848;9.000;2022-09-23T08:12:00;95954.69;;;21.15;40.80
56038;BME280;41907;47.848;9.000;2022-09-23T08:14:25;95962.88;;;20.59;43.71
56038;BME280;41907;47.848;9.000;2022-09-23T08:16:51;95969.94;;;19.92;45.00
56038;BME280;41907;47.848;9.000;2022-09-23T08:19:18;95967.53;;;19.45;45.93
56038;BME280;41907;47.848;9.000;2022-09-23T08:21:45;95969.38;;;18.64;48.60
56038;BME280;41907;47.848;9.000;2022-09-23T08:24:21;95970.53;;;18.47;49.95
56038;BME280;41907;47.848;9.000;2022-09-23T08:26:49;95970.47;;;18.28;50.37
56038;BME280;41907;47.848;9.000;2022-09-23T08:29:20;95968.56;;;18.28;51.13
56038;BME280;41907;47.848;9.000;2022-09-23T08:31:46;95964.66;;;18.10;53.09
56038;BME280;41907;47.848;9.000;2022-09-23T08:34:11;95973.00;;;18.20;52.31
56038;BME280;41907;47.848;9.000;2022-09-23T08:36:37;95964.47;;;18.03;52.83
56038;BME280;41907;47.848;9.000;2022-09-23T08:39:04;95969.78;;;17.99;53.27
56038;BME280;41907;47.848;9.000;2022-09-23T08:44:36;95977.03;;;18.11;53.52
56038;BME280;41907;47.848;9.000;2022-09-23T08:52:57;95979.69;;;17.64;56.80
56038;BME280;41907;47.848;9.000;2022-09-23T09:00:37;95969.75;;;17.24;56.69
56038;BME280;41907;47.848;9.000;2022-09-23T09:03:18;95970.84;;;17.07;57.25
56038;BME280;41907;47.848;9.000;2022-09-23T09:05:45;95968.03;;;17.32;56.75
56038;BME280;41907;47.848;9.000;2022-09-23T09:08:11;95969.00;;;17.67;55.92
56038;BME280;41907;47.848;9.000;2022-09-23T09:10:41;95966.63;;;18.13;56.24
56038;BME280;41907;47.848;9.000;2022-09-23T09:13:32;95970.97;;;18.84;54.45
56038;BME280;41907;47.848;9.000;2022-09-23T09:18:55;95960.28;;;19.91;50.33
56038;BME280;41907;47.848;9.000;2022-09-23T09:21:29;95954.09;;;20.66;47.50
56038;BME280;41907;47.848;9.000;2022-09-23T09:23:57;95947.44;;;21.20;47.25
56038;BME280;41907;47.848;9.000;2022-09-23T09:26:31;95949.63;;;21.14;46.20
56038;BME280;41907;47.848;9.000;2022-09-23T09:29:02;95941.38;;;21.70;45.26
56038;BME280;41907;47.848;9.000;2022-09-23T09:36:39;95935.28;;;22.97;43.41
56038;BME280;41907;47.848;9.000;2022-09-23T09:39:11;95934.63;;;23.32;42.66
56038;BME280;41907;47.848;9.000;2022-09-23T09:41:39;95933.69;;;22.82;42.97
56038;BME280;41907;47.848;9.000;2022-09-23T09:44:19;95930.72;;;23.15;43.51
56038;BME280;41907;47.848;9.000;2022-09-23T09:47:23;95931.63;;;23.55;42.98
56038;BME280;41907;47.848;9.000;2022-09-23T09:50:03;95925.81;;;23.67;42.11
56038;BME280;41907;47.848;9.000;2022-09-23T09:52:29;95921.53;;;23.73;41.47
56038;BME280;41907;47.848;9.000;2022-09-23T09:55:23;95928.16;;;23.72;42.63
56038;BME280;41907;47.848;9.000;2022-09-23T09:57:59;95918.03;;;24.08;42.18
56038;BME280;41907;47.848;9.000;2022-09-23T10:02:57;95908.16;;;25.03;39.04
56038;BME280;41907;47.848;9.000;2022-09-23T10:05:29;95910.56;;;23.30;41.56
56038;BME280;41907;47.848;9.000;2022-09-23T10:08:20;95901.31;;;23.70;41.82
56038;BME280;41907;47.848;9.000;2022-09-23T10:13:28;95904.41;;;23.55;43.61
56038;BME280;41907;47.848;9.000;2022-09-23T10:15:55;95896.28;;;23.87;42.92
56038;BME280;41907;47.848;9.000;2022-09-23T10:18:37;95894.69;;;23.82;42.14
56038;BME280;41907;47.848;9.000;2022-09-23T10:21:09;95898.19;;;23.72;44.03
56038;BME280;41907;47.848;9.000;2022-09-23T10:23:41;95900.06;;;23.36;43.54
56038;BME280;41907;47.848;9.000;2022-09-23T10:26:08;95885.34;;;23.72;42.05
56038;BME280;41907;47.848;9.000;2022-09-23T10:28:48;95889.53;;;24.73;41.09
56038;BME280;41907;47.848;9.000;2022-09-23T10:33:51;95889.28;;;25.33;40.25
56038;BME280;41907;47.848;9.000;2022-09-23T10:36:17;95890.47;;;25.32;39.02
56038;BME280;41907;47.848;9.000;2022-09-23T10:38:43;95890.06;;;25.34;41.41
56038;BME280;41907;47.848;9.000;2022-09-23T10:41:20;95886.59;;;25.26;40.78
56038;BME280;41907;47.848;9.000;2022-09-23T10:47:22;95880.78;;;25.83;40.62
56038;BME280;41907;47.848;9.000;2022-09-23T10:50:12;95875.00;;;26.18;37.99
56038;BME280;41907;47.848;9.000;2022-09-23T10:55:41;95874.00;;;26.02;38.35
56038;BME280;41907;47.848;9.000;2022-09-23T11:00:46;95869.38;;;25.95;39.01
56038;BME280;41907;47.848;9.000;2022-09-23T11:11:51;95853.63;;;24.96;40.45
56038;BME280;41907;47.848;9.000;2022-09-23T11:22:53;95847.94;;;23.27;43.55
56038;BME280;41907;47.848;9.000;2022-09-23T11:25:44;95842.84;;;23.15;44.98
56038;BME280;41907;47.848;9.000;2022-09-23T11:31:34;95829.59;;;22.88;47.09
56038;BME280;41907;47.848;9.000;2022-09-23T11:36:47;95823.06;;;22.24;49.73
56038;BME280;41907;47.848;9.000;2022-09-23T11:39:27;95832.41;;;21.28;48.76
56038;BME280;41907;47.848;9.000;2022-09-23T11:41:57;95823.88;;;21.26;51.19
56038;BME280;41907;47.848;9.000;2022-09-23T11:44:32;95821.44;;;21.17;47.42
56038;BME280;41907;47.848;9.000;2022-09-23T11:47:25;95820.06;;;20.97;50.96
56038;BME280;41907;47.848;9.000;2022-09-23T11:50:04;95813.06;;;20.92;52.38
56038;BME280;41907;47.848;9.000;2022-09-23T11:52:41;95814.88;;;20.48;53.01
56038;BME280;41907;47.848;9.000;2022-09-23T11:55:21;95801.56;;;20.35;52.55
56038;BME280;41907;47.848;9.000;2022-09-23T12:00:34;95788.59;;;20.52;53.96
56038;BME280;41907;47.848;9.000;2022-09-23T12:03:20;95793.88;;;20.41;51.24
56038;BME280;41907;47.848;9.000;2022-09-23T12:06:12;95790.16;;;20.90;53.07
56038;BME280;41907;47.848;9.000;2022-09-23T12:08:38;95775.91;;;21.37;51.44
56038;BME280;41907;47.848;9.000;2022-09-23T12:28:29;95769.06;;;21.09;48.37
56038;BME280;41907;47.848;9.000;2022-09-23T12:30:59;95767.75;;;20.96;51.23
56038;BME280;41907;47.848;9.000;2022-09-23T12:33:27;95767.34;;;21.35;52.82
56038;BME280;41907;47.848;9.000;2022-09-23T12:36:01;95759.84;;;21.65;50.46
56038;BME280;41907;47.848;9.000;2022-09-23T12:38:33;95751.28;;;21.63;47.81
56038;BME280;41907;47.848;9.000;2022-09-23T12:41:01;95751.38;;;20.86;51.73
56038;BME280;41907;47.848;9.000;2022-09-23T12:43:50;95742.88;;;21.28;52.89
56038;BME280;41907;47.848;9.000;2022-09-23T12:46:21;95747.59;;;21.34;49.18
56038;BME280;41907;47.848;9.000;2022-09-23T12:58:58;95730.94;;;20.92;50.45
56038;BME280;41907;47.848;9.000;2022-09-23T13:01:24;95725.88;;;20.90;49.92
56038;BME280;41907;47.848;9.000;2022-09-23T13:03:53;95729.75;;;20.89;52.60
56038;BME280;41907;47.848;9.000;2022-09-23T13:06:45;95718.31;;;21.10;54.58
56038;BME280;41907;47.848;9.000;2022-09-23T13:09:31;95720.81;;;20.85;51.65
56038;BME280;41907;47.848;9.000;2022-09-23T13:12:04;95714.19;;;20.42;51.68
56038;BME280;41907;47.848;9.000;2022-09-23T13:14:31;95705.44;;;20.56;51.39
56038;BME280;41907;47.848;9.000;2022-09-23T13:16:57;95699.03;;;20.78;50.59
56038;BME280;41907;47.848;9.000;2022-09-23T13:24:40;95705.38;;;20.19;51.86
56038;BME280;41907;47.848;9.000;2022-09-23T13:27:16;95705.72;;;20.47;53.09
56038;BME280;41907;47.848;9.000;2022-09-23T13:29:54;95696.94;;;20.61;52.16
56038;BME280;41907;47.848;9.000;2022-09-23T13:32:27;95698.69;;;20.79;51.89
56038;BME280;41907;47.848;9.000;2022-09-23T13:34:59;95686.50;;;21.07;53.44
56038;BME280;41907;47.848;9.000;2022-09-23T13:37:45;95688.19;;;20.78;52.81
56038;BME280;41907;47.848;9.000;2022-09-23T13:40:25;95693.56;;;20.34;52.36
56038;BME280;41907;47.848;9.000;2022-09-23T13:42:55;95685.66;;;20.18;54.03
56038;BME280;41907;47.848;9.000;2022-09-23T13:45:23;95683.28;;;19.83;52.96
56038;BME280;41907;47.848;9.000;2022-09-23T13:47:50;95680.09;;;20.08;54.22
56038;BME280;41907;47.848;9.000;2022-09-23T13:50:23;95682.81;;;20.08;52.72
56038;BME280;41907;47.848;9.000;2022-09-23T13:52:56;95687.53;;;20.14;53.12
56038;BME280;41907;47.848;9.000;2022-09-23T13:57:56;95668.16;;;20.12;52.56
56038;BME280;41907;47.848;9.000;2022-09-23T14:00:22;95667.72;;;20.40;53.70
56038;BME280;41907;47.848;9.000;2022-09-23T14:02:49;95667.50;;;20.56;51.99
56038;BME280;41907;47.848;9.000;2022-09-23T14:05:25;95663.53;;;20.50;52.48
56038;BME280;41907;47.848;9.000;2022-09-23T14:07:53;95663.72;;;20.30;50.12
56038;BME280;41907;47.848;9.000;2022-09-23T14:10:21;95657.19;;;20.01;51.46
56038;BME280;41907;47.848;9.000;2022-09-23T14:12:49;95666.72;;;20.22;52.55
56038;BME280;41907;47.848;9.000;2022-09-23T14:15:16;95669.06;;;20.23;52.89
56038;BME280;41907;47.848;9.000;2022-09-23T14:17:47;95665.81;;;20.11;51.13
56038;BME280;41907;47.848;9.000;2022-09-23T14:20:15;95651.72;;;19.94;52.09
56038;BME280;41907;47.848;9.000;2022-09-23T14:22:41;95653.91;;;19.85;51.82
56038;BME280;41907;47.848;9.000;2022-09-23T14:25:16;95648.84;;;19.80;51.58
56038;BME280;41907;47.848;9.000;2022-09-23T14:27:43;95650.13;;;19.90;53.43
56038;BME280;41907;47.848;9.000;2022-09-23T14:30:16;95645.75;;;20.15;53.88
56038;BME280;41907;47.848;9.000;2022-09-23T14:32:45;95635.38;;;20.21;52.53
56038;BME280;41907;47.848;9.000;2022-09-23T14:35:26;95641.31;;;19.96;53.21
56038;BME280;41907;47.848;9.000;2022-09-23T14:38:02;95637.19;;;20.10;53.12
56038;BME280;41907;47.848;9.000;2022-09-23T14:40:53;95630.28;;;19.82;53.52
56038;BME280;41907;47.848;9.000;2022-09-23T14:43:45;95637.31;;;19.87;54.63
56038;BME280;41907;47.848;9.000;2022-09-23T14:46:16;95626.13;;;19.88;54.19
56038;BME280;41907;47.848;9.000;2022-09-23T14:48:43;95633.13;;;19.93;53.56
56038;BME280;41907;47.848;9.000;2022-09-23T14:51:15;95625.38;;;19.91;54.50
56038;BME280;41907;47.848;9.000;2022-09-23T14:53:43;95623.72;;;19.80;54.61
56038;BME280;41907;47.848;9.000;2022-09-23T14:58:43;95623.88;;;19.64;54.38
56038;BME280;41907;47.848;9.000;2022-09-23T15:04:42;95618.44;;;19.60;55.25
56038;BME280;41907;47.848;9.000;2022-09-23T15:06:55;95623.38;;;19.55;54.98
56038;BME280;41907;47.848;9.000;2022-09-23T15:09:25;95619.34;;;19.42;55.02
56038;BME280;41907;47.848;9.000;2022-09-23T15:12:04;95621.44;;;19.52;56.77
56038;BME280;41907;47.848;9.000;2022-09-23T15:14:34;95619.09;;;19.50;56.92
56038;BME280;41907;47.848;9.000;2022-09-23T15:17:03;95621.03;;;19.53;56.13
56038;BME280;41907;47.848;9.000;2022-09-23T15:19:30;95618.09;;;19.36;56.29
56038;BME280;41907;47.848;9.000;2022-09-23T15:21:57;95616.63;;;19.42;56.78
56038;BME280;41907;47.848;9.000;2022-09-23T15:24:41;95616.16;;;19.36;57.40
56038;BME280;41907;47.848;9.000;2022-09-23T15:27:30;95613.78;;;19.31;58.49
56038;BME280;41907;47.848;9.000;2022-09-23T15:30:16;95609.72;;;19.18;58.29
56038;BME280;41907;47.848;9.000;2022-09-23T15:32:45;95615.13;;;19.18;60.67
56038;BME280;41907;47.848;9.000;2022-09-23T15:35:12;95608.91;;;19.14;60.87